createdAt,value
2022-08-19T00:01:28.854Z,20.69
2022-08-19T00:04:00.671Z,20.67
2022-08-19T00:06:28.379Z,20.64
2022-08-19T00:08:55.283Z,20.63
2022-08-19T00:11:26.077Z,20.61
2022-08-19T00:13:53.609Z,20.59
2022-08-19T00:16:25.382Z,20.58
2022-08-19T00:18:54.466Z,20.56
2022-08-19T00:21:21.237Z,20.55
2022-08-19T00:23:48.136Z,20.52
2022-08-19T00:26:15.063Z,20.49
2022-08-19T00:28:42.178Z,20.46
2022-08-19T00:31:09.283Z,20.44
2022-08-19T00:33:36.201Z,20.41
2022-08-19T00:36:05.632Z,20.38
2022-08-19T00:38:37.587Z,20.35
2022-08-19T00:41:06.453Z,20.33
2022-08-19T00:43:33.326Z,20.31
2022-08-19T00:46:00.157Z,20.30
2022-08-19T00:48:26.912Z,20.25
2022-08-19T00:50:54.263Z,20.23
2022-08-19T00:53:29.044Z,20.22
2022-08-19T00:55:57.559Z,20.21
2022-08-19T00:58:28.505Z,20.18
2022-08-19T01:00:55.491Z,20.16
2022-08-19T01:03:22.685Z,20.14
2022-08-19T01:05:50.019Z,20.13
2022-08-19T01:08:17.312Z,20.12
2022-08-19T01:10:52.662Z,20.11
2022-08-19T01:13:22.284Z,20.10
2022-08-19T01:15:55.102Z,20.07
2022-08-19T01:18:21.924Z,20.05
2022-08-19T01:20:49.163Z,20.05
2022-08-19T01:23:16.152Z,20.04
2022-08-19T01:25:50.233Z,20.03
2022-08-19T01:28:34.404Z,20.02
2022-08-19T01:31:12.525Z,20.01
2022-08-19T01:33:56.420Z,19.99
2022-08-19T01:36:33.439Z,19.98
2022-08-19T01:39:01.018Z,19.97
2022-08-19T01:41:27.820Z,19.95
2022-08-19T01:44:17.052Z,19.94
2022-08-19T01:46:41.714Z,19.93
2022-08-19T01:49:09.110Z,19.88
2022-08-19T01:51:39.785Z,19.84
2022-08-19T01:54:11.126Z,19.79
2022-08-19T01:56:37.884Z,19.77
2022-08-19T01:59:09.785Z,19.76
2022-08-19T02:01:36.662Z,19.73
2022-08-19T02:04:03.798Z,19.71
2022-08-19T02:06:30.809Z,19.68
2022-08-19T02:08:57.938Z,19.67
2022-08-19T02:11:27.643Z,19.64
2022-08-19T02:13:55.196Z,19.61
2022-08-19T02:16:22.336Z,19.56
2022-08-19T02:18:51.959Z,19.51
2022-08-19T02:21:19.598Z,19.48
2022-08-19T02:23:46.703Z,19.46
2022-08-19T02:26:13.612Z,19.43
2022-08-19T02:28:41.230Z,19.41
2022-08-19T02:31:13.650Z,19.38
2022-08-19T02:33:40.460Z,19.34
2022-08-19T02:36:08.016Z,19.31
2022-08-19T02:38:35.809Z,19.28
2022-08-19T02:41:05.793Z,19.25
2022-08-19T02:43:37.367Z,19.23
2022-08-19T02:46:23.084Z,19.20
2022-08-19T02:48:53.384Z,19.17
2022-08-19T02:51:27.522Z,19.15
2022-08-19T02:53:54.386Z,19.13
2022-08-19T02:56:21.370Z,19.10
2022-08-19T02:58:49.299Z,19.08
2022-08-19T03:01:23.705Z,19.05
2022-08-19T03:03:50.692Z,19.03
2022-08-19T03:06:17.511Z,19.01
2022-08-19T03:08:45.372Z,19.01
2022-08-19T03:11:19.774Z,19.02
2022-08-19T03:13:46.685Z,19.03
2022-08-19T03:16:13.481Z,19.01
2022-08-19T03:18:40.213Z,18.99
2022-08-19T03:21:07.073Z,18.97
2022-08-19T03:23:39.983Z,18.97
2022-08-19T03:26:16.766Z,18.96
2022-08-19T03:28:50.907Z,18.95
2022-08-19T03:31:44.252Z,18.95
2022-08-19T03:34:08.197Z,18.96
2022-08-19T03:36:35.035Z,18.95
2022-08-19T03:39:01.931Z,18.96
2022-08-19T03:41:34.117Z,18.96
2022-08-19T03:44:12.737Z,18.96
2022-08-19T03:46:45.143Z,18.97
2022-08-19T03:49:14.134Z,18.97
2022-08-19T03:51:42.072Z,18.98
2022-08-19T03:54:10.028Z,18.99
2022-08-19T03:56:38.071Z,19.00
2022-08-19T03:59:05.145Z,19.02
2022-08-19T04:01:35.218Z,19.03
2022-08-19T04:04:02.417Z,19.05
2022-08-19T04:06:33.214Z,19.08
2022-08-19T04:09:00.615Z,19.11
2022-08-19T04:11:43.182Z,19.13
2022-08-19T04:14:15.969Z,19.16
2022-08-19T04:16:44.815Z,19.17
2022-08-19T04:19:11.893Z,19.20
2022-08-19T04:21:38.638Z,19.23
2022-08-19T04:24:05.602Z,19.27
2022-08-19T04:26:34.860Z,19.31
2022-08-19T04:29:02.494Z,19.35
2022-08-19T04:31:30.449Z,19.37
2022-08-19T04:33:57.916Z,19.40
2022-08-19T04:36:36.169Z,19.45
2022-08-19T04:39:16.958Z,19.51
2022-08-19T04:42:03.032Z,19.57
2022-08-19T04:44:33.152Z,19.60
2022-08-19T04:47:00.168Z,19.65
2022-08-19T04:49:28.405Z,19.70
2022-08-19T04:51:55.337Z,19.76
2022-08-19T04:54:37.267Z,19.80
2022-08-19T04:57:09.606Z,19.86
2022-08-19T04:59:37.246Z,19.93
2022-08-19T05:02:04.365Z,20.04
2022-08-19T05:04:34.642Z,20.23
2022-08-19T05:07:02.256Z,20.41
2022-08-19T05:09:39.078Z,20.59
2022-08-19T05:12:16.848Z,20.83
2022-08-19T05:14:44.325Z,21.05
2022-08-19T05:17:27.163Z,21.27
2022-08-19T05:20:13.408Z,21.44
2022-08-19T05:22:40.335Z,21.59
2022-08-19T05:25:13.020Z,21.74
2022-08-19T05:27:40.808Z,21.89
2022-08-19T05:30:08.126Z,21.93
2022-08-19T05:32:34.915Z,22.01
2022-08-19T05:35:01.724Z,22.10
2022-08-19T05:37:28.646Z,22.16
2022-08-19T05:39:55.889Z,22.18
2022-08-19T05:42:23.969Z,22.24
2022-08-19T05:44:50.901Z,22.36
2022-08-19T05:47:17.870Z,22.44
2022-08-19T05:49:44.581Z,22.50
2022-08-19T05:54:20.187Z,22.58
2022-08-19T05:56:48.536Z,22.60
2022-08-19T05:59:16.248Z,22.64
2022-08-19T06:01:46.928Z,22.64
2022-08-19T06:04:14.704Z,22.63
2022-08-19T06:06:41.460Z,22.64
2022-08-19T06:09:08.713Z,22.59
2022-08-19T06:11:41.413Z,22.54
2022-08-19T06:14:16.553Z,22.50
2022-08-19T06:16:44.157Z,22.47
2022-08-19T06:19:13.301Z,22.42
2022-08-19T06:21:41.782Z,22.34
2022-08-19T06:24:10.199Z,22.31
2022-08-19T06:26:38.127Z,22.30
2022-08-19T06:29:07.143Z,22.25
2022-08-19T06:31:34.819Z,22.18
2022-08-19T06:34:05.365Z,22.09
2022-08-19T06:37:01.045Z,22.02
2022-08-19T06:39:29.856Z,22.02
2022-08-19T06:41:58.958Z,22.06
2022-08-19T06:44:32.228Z,22.07
2022-08-19T06:46:58.964Z,22.06
2022-08-19T06:49:28.608Z,22.06
2022-08-19T06:51:57.750Z,22.06
2022-08-19T06:54:24.523Z,22.04
2022-08-19T06:56:59.118Z,22.05
2022-08-19T06:59:29.045Z,22.09
2022-08-19T07:01:56.974Z,22.12
2022-08-19T07:04:26.207Z,22.14
2022-08-19T07:07:19.546Z,22.16
2022-08-19T07:09:57.161Z,22.13
2022-08-19T07:12:27.574Z,22.15
2022-08-19T07:14:56.357Z,22.17
2022-08-19T07:17:24.433Z,22.20
2022-08-19T07:19:51.692Z,22.24
2022-08-19T07:22:23.819Z,22.23
2022-08-19T07:24:52.322Z,22.25
2022-08-19T07:27:25.173Z,22.28
2022-08-19T07:29:55.861Z,22.29
2022-08-19T07:32:27.485Z,22.30
2022-08-19T07:34:54.473Z,22.32
2022-08-19T07:37:21.182Z,22.36
2022-08-19T07:39:48.125Z,22.40
2022-08-19T07:42:15.507Z,22.45
2022-08-19T07:44:42.529Z,22.50
2022-08-19T07:47:47.845Z,22.54
2022-08-19T07:50:08.061Z,22.57
2022-08-19T07:52:35.716Z,22.61
2022-08-19T07:55:04.822Z,22.63
2022-08-19T07:57:31.750Z,22.66
2022-08-19T07:59:58.575Z,22.69
2022-08-19T08:02:25.386Z,22.72
2022-08-19T08:05:10.654Z,22.75
2022-08-19T08:07:55.906Z,22.81
2022-08-19T08:10:24.305Z,22.88
2022-08-19T08:13:10.316Z,22.91
2022-08-19T08:15:42.633Z,22.93
2022-08-19T08:18:11.031Z,22.93
2022-08-19T08:20:37.839Z,22.95
2022-08-19T08:23:23.072Z,22.97
2022-08-19T08:25:50.186Z,22.99
2022-08-19T08:28:18.060Z,23.03
2022-08-19T08:30:46.786Z,23.05
2022-08-19T08:35:46.694Z,23.10
2022-08-19T08:38:13.996Z,23.12
2022-08-19T08:40:51.315Z,23.16
2022-08-19T08:43:37.877Z,23.21
2022-08-19T08:46:12.176Z,23.26
2022-08-19T08:48:54.470Z,23.31
2022-08-19T08:51:37.684Z,23.33
2022-08-19T08:54:07.695Z,23.34
2022-08-19T08:56:39.923Z,23.35
2022-08-19T08:59:10.906Z,23.38
2022-08-19T09:01:37.743Z,23.42
2022-08-19T09:04:06.343Z,23.45
2022-08-19T09:06:40.687Z,23.51
2022-08-19T09:09:29.367Z,23.59
2022-08-19T09:11:56.117Z,23.65
2022-08-19T09:14:55.244Z,23.67
2022-08-19T09:17:31.922Z,23.66
2022-08-19T09:20:19.634Z,23.68
2022-08-19T09:22:46.455Z,23.68
2022-08-19T09:25:15.924Z,23.69
2022-08-19T09:27:43.679Z,23.74
2022-08-19T09:30:16.344Z,23.78
2022-08-19T09:32:43.888Z,23.78
2022-08-19T09:35:11.062Z,23.80
2022-08-19T09:37:39.112Z,23.86
2022-08-19T09:40:09.125Z,23.90
2022-08-19T09:42:38.628Z,23.93
2022-08-19T09:45:17.887Z,23.97
2022-08-19T09:47:44.738Z,23.96
2022-08-19T09:50:16.414Z,23.92
2022-08-19T09:52:53.806Z,23.89
2022-08-19T09:55:24.189Z,23.88
2022-08-19T09:57:50.923Z,23.87
2022-08-19T10:00:17.733Z,23.90
2022-08-19T10:02:44.552Z,23.93
2022-08-19T10:05:31.168Z,23.98
2022-08-19T10:07:58.386Z,24.04
2022-08-19T10:10:25.166Z,24.05
2022-08-19T10:12:51.948Z,24.08
2022-08-19T10:15:29.174Z,24.13
2022-08-19T10:17:56.635Z,24.22
2022-08-19T10:20:26.009Z,24.30
2022-08-19T10:22:53.374Z,24.34
2022-08-19T10:25:20.215Z,24.35
2022-08-19T10:27:52.986Z,24.37
2022-08-19T10:30:22.793Z,24.38
2022-08-19T10:32:51.767Z,24.39
2022-08-19T10:35:21.751Z,24.37
2022-08-19T10:37:57.375Z,24.36
2022-08-19T10:40:27.781Z,24.34
2022-08-19T10:42:56.359Z,24.33
2022-08-19T10:45:25.942Z,24.29
2022-08-19T10:47:55.176Z,24.27
2022-08-19T10:50:41.191Z,24.22
2022-08-19T10:53:11.872Z,24.18
2022-08-19T10:55:57.471Z,24.16
2022-08-19T10:58:24.727Z,24.15
2022-08-19T11:00:56.652Z,24.12
2022-08-19T11:03:23.816Z,24.10
2022-08-19T11:06:01.225Z,24.12
2022-08-19T11:08:28.480Z,24.17
2022-08-19T11:11:00.162Z,24.18
2022-08-19T11:13:35.033Z,24.17
2022-08-19T11:16:07.892Z,24.15
2022-08-19T11:18:49.233Z,24.15
2022-08-19T11:21:27.096Z,24.17
2022-08-19T11:23:56.107Z,24.18
2022-08-19T11:26:23.149Z,24.18
2022-08-19T11:28:52.291Z,24.19
2022-08-19T11:31:21.615Z,24.25
2022-08-19T11:33:52.419Z,24.37
2022-08-19T11:36:19.534Z,24.46
2022-08-19T11:38:49.242Z,24.51
2022-08-19T11:41:17.139Z,24.52
2022-08-19T11:43:43.914Z,24.49
2022-08-19T11:46:12.758Z,24.44
2022-08-19T11:48:39.580Z,24.42
2022-08-19T11:51:11.714Z,24.42
2022-08-19T11:53:38.853Z,24.42
2022-08-19T11:56:06.255Z,24.42
2022-08-19T11:58:33.223Z,24.42
2022-08-19T12:00:59.972Z,24.41
2022-08-19T12:03:26.814Z,24.43
2022-08-19T12:05:53.687Z,24.43
2022-08-19T12:08:20.484Z,24.45
2022-08-19T12:10:47.241Z,24.50
2022-08-19T12:13:19.416Z,24.51
2022-08-19T12:15:47.089Z,24.46
2022-08-19T12:18:14.859Z,24.39
2022-08-19T12:20:42.547Z,24.30
2022-08-19T12:23:10.549Z,24.24
2022-08-19T12:25:38.061Z,24.23
2022-08-19T12:28:05.090Z,24.22
2022-08-19T12:30:31.936Z,24.21
2022-08-19T12:32:58.809Z,24.22
2022-08-19T12:35:25.556Z,24.22
2022-08-19T12:37:54.859Z,24.20
2022-08-19T12:40:26.516Z,24.19
2022-08-19T12:42:54.497Z,24.17
2022-08-19T12:45:21.232Z,24.16
2022-08-19T12:47:49.581Z,24.14
2022-08-19T12:50:16.616Z,24.09
2022-08-19T12:52:43.464Z,24.04
2022-08-19T12:55:11.618Z,23.97
2022-08-19T12:57:38.683Z,23.89
2022-08-19T13:00:14.632Z,23.80
2022-08-19T13:02:42.640Z,23.71
2022-08-19T13:05:11.484Z,23.63
2022-08-19T13:07:39.594Z,23.56
2022-08-19T13:10:07.825Z,23.51
2022-08-19T13:12:34.711Z,23.47
2022-08-19T13:15:01.678Z,23.42
2022-08-19T13:17:29.359Z,23.36
2022-08-19T13:19:56.098Z,23.31
2022-08-19T13:22:22.840Z,23.26
2022-08-19T13:24:49.622Z,23.23
2022-08-19T13:27:16.333Z,23.21
2022-08-19T13:30:01.704Z,23.21
2022-08-19T13:32:48.879Z,23.20
2022-08-19T13:35:16.962Z,23.17
2022-08-19T13:37:44.783Z,23.14
2022-08-19T13:40:19.527Z,23.09
2022-08-19T13:42:48.601Z,23.05
2022-08-19T13:45:17.490Z,23.00
2022-08-19T13:47:46.804Z,22.95
2022-08-19T13:50:15.117Z,22.91
2022-08-19T13:52:42.546Z,22.87
2022-08-19T13:55:10.035Z,22.82
2022-08-19T13:57:38.775Z,22.77
2022-08-19T14:00:09.019Z,22.72
2022-08-19T14:02:35.916Z,22.69
2022-08-19T14:05:02.785Z,22.63
2022-08-19T14:07:29.582Z,22.58
2022-08-19T14:09:56.331Z,22.54
2022-08-19T14:12:28.767Z,22.50
2022-08-19T14:14:56.035Z,22.48
2022-08-19T14:17:22.992Z,22.45
2022-08-19T14:19:49.713Z,22.40
2022-08-19T14:22:22.226Z,22.36
2022-08-19T14:24:49.390Z,22.33
2022-08-19T14:27:16.158Z,22.31
2022-08-19T14:29:43.006Z,22.29
2022-08-19T14:32:11.540Z,22.28
2022-08-19T14:34:46.730Z,22.25
2022-08-19T14:37:16.866Z,22.22
2022-08-19T14:39:43.673Z,22.20
2022-08-19T14:42:11.478Z,22.20
2022-08-19T14:44:38.447Z,22.18
2022-08-19T14:47:05.379Z,22.17
2022-08-19T14:49:35.277Z,22.18
2022-08-19T14:52:09.840Z,22.20
2022-08-19T14:54:36.555Z,22.23
2022-08-19T14:57:03.514Z,22.28
2022-08-19T14:59:30.280Z,22.33
2022-08-19T15:01:57.091Z,22.37
2022-08-19T15:04:23.861Z,22.40
2022-08-19T15:06:51.627Z,22.41
2022-08-19T15:09:18.481Z,22.42
2022-08-19T15:11:45.197Z,22.43
2022-08-19T15:14:12.036Z,22.44
2022-08-19T15:16:41.428Z,22.41
2022-08-19T15:19:08.298Z,22.40
2022-08-19T15:21:35.139Z,22.38
2022-08-19T15:24:02.282Z,22.35
2022-08-19T15:26:33.358Z,22.33
2022-08-19T15:29:01.033Z,22.31
2022-08-19T15:31:29.107Z,22.28
2022-08-19T15:33:58.303Z,22.26
2022-08-19T15:36:26.226Z,22.27
2022-08-19T15:38:53.389Z,22.27
2022-08-19T15:41:25.521Z,22.27
2022-08-19T15:43:58.750Z,22.29
2022-08-19T15:46:26.745Z,22.30
2022-08-19T15:48:56.806Z,22.28
2022-08-19T15:51:27.148Z,22.25
2022-08-19T15:53:54.175Z,22.21
2022-08-19T15:56:23.566Z,22.17
2022-08-19T15:59:12.202Z,22.12
2022-08-19T16:01:57.590Z,22.08
2022-08-19T16:04:43.491Z,22.04
2022-08-19T16:07:10.354Z,22.00
2022-08-19T16:09:37.182Z,21.97
2022-08-19T16:12:05.166Z,21.93
2022-08-19T16:14:32.990Z,21.90
2022-08-19T16:16:59.755Z,21.86
2022-08-19T16:19:26.559Z,21.82
2022-08-19T16:21:55.095Z,21.78
2022-08-19T16:24:23.368Z,21.75
2022-08-19T16:26:50.249Z,21.73
2022-08-19T16:29:25.839Z,21.71
2022-08-19T16:32:02.866Z,21.69
2022-08-19T16:34:30.026Z,21.66
2022-08-19T16:36:56.767Z,21.66
2022-08-19T16:39:23.809Z,21.64
2022-08-19T16:41:51.585Z,21.62
2022-08-19T16:44:21.097Z,21.59
2022-08-19T16:46:58.806Z,21.56
2022-08-19T16:49:53.464Z,21.53
2022-08-19T16:52:17.814Z,21.48
2022-08-19T16:54:44.733Z,21.44
2022-08-19T16:57:12.032Z,21.40
2022-08-19T16:59:48.513Z,21.36
2022-08-19T17:02:20.126Z,21.31
2022-08-19T17:04:57.202Z,21.27
2022-08-19T17:07:28.093Z,21.23
2022-08-19T17:09:55.445Z,21.20
2022-08-19T17:12:30.750Z,21.19
2022-08-19T17:14:59.362Z,21.19
2022-08-19T17:17:29.182Z,21.17
2022-08-19T17:19:57.560Z,21.14
2022-08-19T17:22:24.285Z,21.10
2022-08-19T17:24:51.007Z,21.07
2022-08-19T17:27:19.818Z,21.05
2022-08-19T17:29:47.228Z,21.02
2022-08-19T17:32:15.446Z,21.00
2022-08-19T17:34:42.190Z,20.96
2022-08-19T17:37:08.988Z,20.92
2022-08-19T17:39:38.937Z,20.89
2022-08-19T17:42:08.194Z,20.86
2022-08-19T17:44:36.676Z,20.86
2022-08-19T17:47:04.379Z,20.86
2022-08-19T17:49:32.700Z,20.83
2022-08-19T17:52:00.247Z,20.83
2022-08-19T17:54:28.679Z,20.82
2022-08-19T17:57:00.417Z,20.83
2022-08-19T17:59:30.222Z,20.83
2022-08-19T18:01:57.325Z,20.83
2022-08-19T18:04:25.062Z,20.81
2022-08-19T18:06:54.331Z,20.80
2022-08-19T18:11:38.907Z,20.81
2022-08-19T18:14:05.637Z,20.77
2022-08-19T18:16:32.629Z,20.74
2022-08-19T18:18:59.746Z,20.70
2022-08-19T18:21:31.751Z,20.65
2022-08-19T18:24:00.447Z,20.61
2022-08-19T18:26:30.316Z,20.57
2022-08-19T18:28:57.247Z,20.54
2022-08-19T18:31:24.113Z,20.51
2022-08-19T18:33:52.655Z,20.49
2022-08-19T18:36:37.354Z,20.46
2022-08-19T18:39:25.081Z,20.46
2022-08-19T18:42:14.607Z,20.45
2022-08-19T18:45:13.642Z,20.45
2022-08-19T18:47:58.859Z,20.43
2022-08-19T18:50:25.642Z,20.39
2022-08-19T18:52:52.431Z,20.36
2022-08-19T18:55:19.252Z,20.33
2022-08-19T18:57:46.053Z,20.31
2022-08-19T19:00:13.487Z,20.30
2022-08-19T19:02:41.180Z,20.28
2022-08-19T19:05:11.295Z,20.27
2022-08-19T19:07:38.827Z,20.25
2022-08-19T19:10:06.540Z,20.23
2022-08-19T19:12:36.829Z,20.22
2022-08-19T19:15:06.146Z,20.19
2022-08-19T19:17:32.928Z,20.18
2022-08-19T19:19:59.697Z,20.16
2022-08-19T19:22:26.712Z,20.15
2022-08-19T19:24:56.574Z,20.11
2022-08-19T19:27:23.328Z,20.09
2022-08-19T19:29:52.359Z,20.07
2022-08-19T19:32:26.111Z,20.05
2022-08-19T19:34:53.306Z,20.05
2022-08-19T19:37:20.147Z,20.02
2022-08-19T19:39:48.188Z,19.98
2022-08-19T19:42:21.142Z,19.96
2022-08-19T19:44:50.467Z,19.94
2022-08-19T19:47:18.997Z,19.92
2022-08-19T19:50:13.818Z,19.89
2022-08-19T19:52:38.931Z,19.84
2022-08-19T19:55:06.334Z,19.78
2022-08-19T19:57:33.137Z,19.73
2022-08-19T20:00:00.221Z,19.65
2022-08-19T20:02:27.074Z,19.60
2022-08-19T20:04:57.181Z,19.52
2022-08-19T20:07:43.890Z,19.42
2022-08-19T20:10:10.724Z,19.32
2022-08-19T20:12:39.233Z,19.25
2022-08-19T20:15:06.774Z,19.17
2022-08-19T20:17:33.625Z,19.09
2022-08-19T20:20:00.400Z,18.99
2022-08-19T20:22:27.149Z,18.93
2022-08-19T20:25:01.798Z,18.87
2022-08-19T20:27:31.174Z,18.80
2022-08-19T20:30:07.944Z,18.72
2022-08-19T20:32:42.796Z,18.65
2022-08-19T20:35:13.741Z,18.61
2022-08-19T20:37:41.451Z,18.56
2022-08-19T20:40:10.052Z,18.53
2022-08-19T20:42:40.446Z,18.51
2022-08-19T20:45:09.830Z,18.47
2022-08-19T20:47:46.436Z,18.42
2022-08-19T20:50:13.188Z,18.39
2022-08-19T20:52:39.912Z,18.34
2022-08-19T20:55:07.356Z,18.30
2022-08-19T20:57:34.269Z,18.27
2022-08-19T21:00:01.002Z,18.24
2022-08-19T21:02:27.781Z,18.22
2022-08-19T21:04:54.514Z,18.20
2022-08-19T21:07:26.901Z,18.17
2022-08-19T21:10:06.867Z,18.12
2022-08-19T21:12:33.698Z,18.10
2022-08-19T21:15:00.432Z,18.08
2022-08-19T21:17:27.158Z,18.05
2022-08-19T21:19:53.881Z,18.02
2022-08-19T21:22:20.644Z,18.00
2022-08-19T21:24:47.382Z,17.98
2022-08-19T21:27:14.082Z,17.98
2022-08-19T21:29:42.213Z,18.01
2022-08-19T21:32:11.214Z,18.07
2022-08-19T21:34:45.438Z,18.16
2022-08-19T21:37:25.269Z,18.24
2022-08-19T21:39:56.030Z,18.33
2022-08-19T21:42:23.240Z,18.41
2022-08-19T21:44:49.971Z,18.47
2022-08-19T21:47:16.715Z,18.50
2022-08-19T21:49:43.436Z,18.55
2022-08-19T21:52:10.147Z,18.59
2022-08-19T21:54:38.516Z,18.63
2022-08-19T21:57:10.221Z,18.66
2022-08-19T21:59:41.287Z,18.68
2022-08-19T22:02:21.958Z,18.68
2022-08-19T22:04:52.424Z,18.68
2022-08-19T22:07:19.461Z,18.68
2022-08-19T22:09:46.914Z,18.68
2022-08-19T22:12:23.431Z,18.67
2022-08-19T22:14:50.655Z,18.69
2022-08-19T22:17:17.795Z,18.69
2022-08-19T22:19:44.586Z,18.69
2022-08-19T22:22:11.687Z,18.70
2022-08-19T22:24:38.459Z,18.70
2022-08-19T22:27:06.824Z,18.68
2022-08-19T22:29:36.572Z,18.65
2022-08-19T22:32:17.813Z,18.62
2022-08-19T22:34:51.813Z,18.61
2022-08-19T22:37:18.811Z,18.59
2022-08-19T22:39:45.630Z,18.57
2022-08-19T22:42:12.526Z,18.55
2022-08-19T22:44:39.307Z,18.52
2022-08-19T22:47:06.129Z,18.49
2022-08-19T22:49:32.925Z,18.47
2022-08-19T22:52:17.533Z,18.42
2022-08-19T22:54:49.483Z,18.39
2022-08-19T22:57:16.435Z,18.36
2022-08-19T22:59:43.220Z,18.32
2022-08-19T23:02:10.006Z,18.29
2022-08-19T23:04:36.839Z,18.27
2022-08-19T23:07:04.963Z,18.25
2022-08-19T23:09:31.730Z,18.21
2022-08-19T23:12:00.649Z,18.18
2022-08-19T23:14:28.082Z,18.15
2022-08-19T23:16:58.735Z,18.13
2022-08-19T23:19:25.830Z,18.12
2022-08-19T23:21:52.712Z,18.10
2022-08-19T23:24:19.474Z,18.09
2022-08-19T23:27:04.805Z,18.07
2022-08-19T23:29:50.102Z,18.05
2022-08-19T23:32:18.202Z,18.02
2022-08-19T23:34:45.304Z,18.00
2022-08-19T23:37:12.088Z,17.96
2022-08-19T23:39:38.889Z,17.92
2022-08-19T23:42:13.609Z,17.89
2022-08-19T23:44:51.246Z,17.89
2022-08-19T23:47:19.400Z,17.86
2022-08-19T23:49:47.098Z,17.81
2022-08-19T23:52:13.832Z,17.77
2022-08-19T23:54:43.661Z,17.74
2022-08-19T23:57:13.949Z,17.71
2022-08-19T23:59:42.672Z,17.68
